Hartlepool, United Kingdom
Current Conditions -  °F | °C
As of 9:20 PM on Saturday 22 Nov 2014 (Local Time) from EGNV Reporting Station
Haze Haze  
Wind Chill: 40°   Ceiling: Unl
Heat Index: 45°   Visibility: 2.5mi
Dew Point: 45°   Wind: 8mph
Humidity: 100%   Direction: 190°S
Pressure: 29.94"   Gusts: NA
Location:  54.67°N, 1.27°W
Report Text: EGNV 222120Z 19007KT 4000 BR SCT025 07/07 Q1014
Loading
Personal Weather Stations






























Interactive Weather Map New forecast layout! Learn more

10-Day Weather Forecast

Advertisements
Track Severe Weather on mobile